sensor_id;sensor_type;location;lat;lon;timestamp;P1;durP1;ratioP1;P2;durP2;ratioP2
56413;SDS011;42318;48.452;19.526;2022-12-15T00:07:38;6.13;;;3.97;;
56413;SDS011;42318;48.452;19.526;2022-12-15T00:15:27;6.45;;;4.28;;
56413;SDS011;42318;48.452;19.526;2022-12-15T00:23:16;5.55;;;4.07;;
56413;SDS011;42318;48.452;19.526;2022-12-15T00:31:06;5.95;;;4.00;;
56413;SDS011;42318;48.452;19.526;2022-12-15T00:38:55;7.10;;;4.30;;
56413;SDS011;42318;48.452;19.526;2022-12-15T00:46:26;5.38;;;4.00;;
56413;SDS011;42318;48.452;19.526;2022-12-15T00:54:15;4.63;;;3.55;;
56413;SDS011;42318;48.452;19.526;2022-12-15T01:02:04;6.70;;;4.65;;
56413;SDS011;42318;48.452;19.526;2022-12-15T01:09:54;5.45;;;4.00;;
56413;SDS011;42318;48.452;19.526;2022-12-15T01:17:43;8.65;;;4.95;;
56413;SDS011;42318;48.452;19.526;2022-12-15T01:25:32;6.03;;;4.30;;
56413;SDS011;42318;48.452;19.526;2022-12-15T01:33:03;6.32;;;4.32;;
56413;SDS011;42318;48.452;19.526;2022-12-15T01:40:34;7.20;;;4.85;;
56413;SDS011;42318;48.452;19.526;2022-12-15T01:48:19;7.00;;;4.55;;
56413;SDS011;42318;48.452;19.526;2022-12-15T01:55:56;7.10;;;4.80;;
56413;SDS011;42318;48.452;19.526;2022-12-15T02:03:27;7.35;;;4.88;;
56413;SDS011;42318;48.452;19.526;2022-12-15T02:11:27;6.97;;;4.53;;
56413;SDS011;42318;48.452;19.526;2022-12-15T02:35:30;6.97;;;4.53;;
56413;SDS011;42318;48.452;19.526;2022-12-15T02:43:02;6.85;;;4.53;;
56413;SDS011;42318;48.452;19.526;2022-12-15T02:59:01;6.40;;;4.63;;
56413;SDS011;42318;48.452;19.526;2022-12-15T03:06:40;7.50;;;5.35;;
56413;SDS011;42318;48.452;19.526;2022-12-15T03:14:11;6.88;;;4.55;;
56413;SDS011;42318;48.452;19.526;2022-12-15T03:21:42;8.32;;;5.18;;
56413;SDS011;42318;48.452;19.526;2022-12-15T03:29:13;6.82;;;4.60;;
56413;SDS011;42318;48.452;19.526;2022-12-15T03:36:44;7.78;;;4.75;;
56413;SDS011;42318;48.452;19.526;2022-12-15T03:44:14;5.88;;;4.18;;
56413;SDS011;42318;48.452;19.526;2022-12-15T03:51:46;5.67;;;4.50;;
56413;SDS011;42318;48.452;19.526;2022-12-15T03:59:17;6.30;;;4.25;;
56413;SDS011;42318;48.452;19.526;2022-12-15T04:06:48;5.88;;;4.45;;
56413;SDS011;42318;48.452;19.526;2022-12-15T04:14:18;5.78;;;4.25;;
56413;SDS011;42318;48.452;19.526;2022-12-15T04:21:49;7.25;;;4.55;;
56413;SDS011;42318;48.452;19.526;2022-12-15T04:29:20;6.18;;;4.30;;
56413;SDS011;42318;48.452;19.526;2022-12-15T04:37:10;6.07;;;4.45;;
56413;SDS011;42318;48.452;19.526;2022-12-15T04:45:02;6.00;;;4.03;;
56413;SDS011;42318;48.452;19.526;2022-12-15T04:52:53;5.55;;;4.05;;
56413;SDS011;42318;48.452;19.526;2022-12-15T05:00:43;6.78;;;4.43;;
56413;SDS011;42318;48.452;19.526;2022-12-15T05:08:32;9.55;;;4.43;;
56413;SDS011;42318;48.452;19.526;2022-12-15T05:16:22;6.38;;;4.00;;
56413;SDS011;42318;48.452;19.526;2022-12-15T05:24:11;5.90;;;4.07;;
56413;SDS011;42318;48.452;19.526;2022-12-15T05:32:01;6.70;;;4.28;;
56413;SDS011;42318;48.452;19.526;2022-12-15T05:39:31;5.57;;;4.35;;
56413;SDS011;42318;48.452;19.526;2022-12-15T05:47:02;6.13;;;4.38;;
56413;SDS011;42318;48.452;19.526;2022-12-15T05:54:34;6.75;;;5.03;;
56413;SDS011;42318;48.452;19.526;2022-12-15T06:02:05;6.15;;;3.97;;
56413;SDS011;42318;48.452;19.526;2022-12-15T06:09:35;6.82;;;4.28;;
56413;SDS011;42318;48.452;19.526;2022-12-15T06:17:06;6.57;;;4.82;;
56413;SDS011;42318;48.452;19.526;2022-12-15T06:24:37;7.88;;;4.75;;
56413;SDS011;42318;48.452;19.526;2022-12-15T06:32:08;7.20;;;4.65;;
56413;SDS011;42318;48.452;19.526;2022-12-15T06:39:39;8.57;;;4.80;;
56413;SDS011;42318;48.452;19.526;2022-12-15T06:47:09;5.53;;;4.25;;
56413;SDS011;42318;48.452;19.526;2022-12-15T06:54:40;7.18;;;4.32;;
56413;SDS011;42318;48.452;19.526;2022-12-15T07:02:17;8.07;;;5.20;;
56413;SDS011;42318;48.452;19.526;2022-12-15T07:09:48;6.65;;;4.28;;
56413;SDS011;42318;48.452;19.526;2022-12-15T07:17:19;8.13;;;4.97;;
56413;SDS011;42318;48.452;19.526;2022-12-15T07:24:50;8.02;;;5.32;;
56413;SDS011;42318;48.452;19.526;2022-12-15T07:32:20;6.63;;;4.15;;
56413;SDS011;42318;48.452;19.526;2022-12-15T07:39:51;7.50;;;4.88;;
56413;SDS011;42318;48.452;19.526;2022-12-15T07:47:22;9.73;;;4.95;;
56413;SDS011;42318;48.452;19.526;2022-12-15T07:54:54;7.67;;;5.40;;
56413;SDS011;42318;48.452;19.526;2022-12-15T08:02:24;8.45;;;6.30;;
56413;SDS011;42318;48.452;19.526;2022-12-15T08:09:55;9.50;;;6.20;;
56413;SDS011;42318;48.452;19.526;2022-12-15T08:17:26;7.28;;;5.15;;
56413;SDS011;42318;48.452;19.526;2022-12-15T08:24:57;6.43;;;4.97;;
56413;SDS011;42318;48.452;19.526;2022-12-15T08:32:28;5.97;;;4.63;;
56413;SDS011;42318;48.452;19.526;2022-12-15T08:39:58;7.15;;;5.03;;
56413;SDS011;42318;48.452;19.526;2022-12-15T08:47:29;7.00;;;4.30;;
56413;SDS011;42318;48.452;19.526;2022-12-15T08:55:00;6.50;;;4.63;;
56413;SDS011;42318;48.452;19.526;2022-12-15T09:02:31;6.95;;;4.40;;
56413;SDS011;42318;48.452;19.526;2022-12-15T09:10:02;8.35;;;5.05;;
56413;SDS011;42318;48.452;19.526;2022-12-15T09:17:33;7.45;;;4.60;;
56413;SDS011;42318;48.452;19.526;2022-12-15T09:25:04;9.02;;;4.60;;
56413;SDS011;42318;48.452;19.526;2022-12-15T09:32:36;7.63;;;5.05;;
56413;SDS011;42318;48.452;19.526;2022-12-15T09:40:07;6.57;;;4.60;;
56413;SDS011;42318;48.452;19.526;2022-12-15T09:47:44;5.70;;;4.13;;
56413;SDS011;42318;48.452;19.526;2022-12-15T09:55:23;6.80;;;4.07;;
56413;SDS011;42318;48.452;19.526;2022-12-15T10:18:21;6.18;;;4.60;;
56413;SDS011;42318;48.452;19.526;2022-12-15T10:25:57;6.05;;;4.07;;
56413;SDS011;42318;48.452;19.526;2022-12-15T10:33:33;7.10;;;4.40;;
56413;SDS011;42318;48.452;19.526;2022-12-15T10:41:08;6.32;;;4.78;;
56413;SDS011;42318;48.452;19.526;2022-12-15T10:48:42;6.72;;;4.13;;
56413;SDS011;42318;48.452;19.526;2022-12-15T10:56:18;6.00;;;4.22;;
56413;SDS011;42318;48.452;19.526;2022-12-15T11:03:53;6.05;;;4.05;;
56413;SDS011;42318;48.452;19.526;2022-12-15T11:11:27;7.68;;;4.60;;
56413;SDS011;42318;48.452;19.526;2022-12-15T11:34:53;6.90;;;4.78;;
56413;SDS011;42318;48.452;19.526;2022-12-15T12:05:53;7.78;;;5.40;;
56413;SDS011;42318;48.452;19.526;2022-12-15T12:21:24;8.82;;;5.85;;
56413;SDS011;42318;48.452;19.526;2022-12-15T12:29:02;8.43;;;5.80;;
56413;SDS011;42318;48.452;19.526;2022-12-15T12:36:41;7.33;;;5.27;;
56413;SDS011;42318;48.452;19.526;2022-12-15T12:44:33;8.02;;;5.15;;
56413;SDS011;42318;48.452;19.526;2022-12-15T12:52:12;10.50;;;5.50;;
56413;SDS011;42318;48.452;19.526;2022-12-15T12:59:50;8.15;;;5.63;;
56413;SDS011;42318;48.452;19.526;2022-12-15T13:15:10;8.23;;;5.85;;
56413;SDS011;42318;48.452;19.526;2022-12-15T13:22:55;9.70;;;5.93;;
56413;SDS011;42318;48.452;19.526;2022-12-15T13:38:52;8.80;;;5.85;;
56413;SDS011;42318;48.452;19.526;2022-12-15T13:46:27;10.73;;;6.40;;
56413;SDS011;42318;48.452;19.526;2022-12-15T13:54:03;9.10;;;6.03;;
56413;SDS011;42318;48.452;19.526;2022-12-15T14:01:48;8.52;;;5.90;;
56413;SDS011;42318;48.452;19.526;2022-12-15T14:09:31;10.25;;;6.65;;
56413;SDS011;42318;48.452;19.526;2022-12-15T14:17:06;9.20;;;6.22;;
56413;SDS011;42318;48.452;19.526;2022-12-15T14:24:42;10.02;;;6.47;;
56413;SDS011;42318;48.452;19.526;2022-12-15T14:32:15;8.48;;;5.45;;
56413;SDS011;42318;48.452;19.526;2022-12-15T14:39:47;8.98;;;5.97;;
56413;SDS011;42318;48.452;19.526;2022-12-15T14:47:20;9.25;;;6.43;;
56413;SDS011;42318;48.452;19.526;2022-12-15T14:55:00;9.63;;;6.38;;
56413;SDS011;42318;48.452;19.526;2022-12-15T15:02:34;11.55;;;7.20;;
56413;SDS011;42318;48.452;19.526;2022-12-15T15:10:19;10.38;;;6.75;;
56413;SDS011;42318;48.452;19.526;2022-12-15T15:17:53;9.63;;;6.70;;
56413;SDS011;42318;48.452;19.526;2022-12-15T15:33:03;9.98;;;6.75;;
56413;SDS011;42318;48.452;19.526;2022-12-15T15:40:37;11.82;;;7.13;;
56413;SDS011;42318;48.452;19.526;2022-12-15T15:48:13;9.73;;;6.25;;
56413;SDS011;42318;48.452;19.526;2022-12-15T15:55:48;9.10;;;6.70;;
56413;SDS011;42318;48.452;19.526;2022-12-15T16:03:22;11.68;;;7.07;;
56413;SDS011;42318;48.452;19.526;2022-12-15T16:10:54;9.37;;;6.37;;
56413;SDS011;42318;48.452;19.526;2022-12-15T16:18:25;8.85;;;6.38;;
56413;SDS011;42318;48.452;19.526;2022-12-15T16:25:56;10.57;;;6.93;;
56413;SDS011;42318;48.452;19.526;2022-12-15T16:41:03;9.85;;;6.60;;
56413;SDS011;42318;48.452;19.526;2022-12-15T16:48:36;11.98;;;7.65;;
56413;SDS011;42318;48.452;19.526;2022-12-15T16:56:07;10.73;;;7.55;;
56413;SDS011;42318;48.452;19.526;2022-12-15T17:03:42;9.82;;;7.45;;
56413;SDS011;42318;48.452;19.526;2022-12-15T17:11:17;11.82;;;7.93;;
56413;SDS011;42318;48.452;19.526;2022-12-15T17:18:50;11.07;;;7.50;;
56413;SDS011;42318;48.452;19.526;2022-12-15T17:26:26;11.73;;;7.38;;
56413;SDS011;42318;48.452;19.526;2022-12-15T17:33:58;12.40;;;8.18;;
56413;SDS011;42318;48.452;19.526;2022-12-15T17:41:29;11.13;;;7.20;;
56413;SDS011;42318;48.452;19.526;2022-12-15T17:48:59;10.90;;;7.40;;
56413;SDS011;42318;48.452;19.526;2022-12-15T17:56:30;11.43;;;7.90;;
56413;SDS011;42318;48.452;19.526;2022-12-15T18:04:01;11.10;;;7.28;;
56413;SDS011;42318;48.452;19.526;2022-12-15T18:11:32;12.35;;;7.30;;
56413;SDS011;42318;48.452;19.526;2022-12-15T18:19:03;11.98;;;7.47;;
56413;SDS011;42318;48.452;19.526;2022-12-15T18:26:33;12.32;;;7.53;;
56413;SDS011;42318;48.452;19.526;2022-12-15T18:34:10;11.55;;;7.43;;
56413;SDS011;42318;48.452;19.526;2022-12-15T18:41:43;12.10;;;8.25;;
56413;SDS011;42318;48.452;19.526;2022-12-15T18:49:14;11.07;;;7.53;;
56413;SDS011;42318;48.452;19.526;2022-12-15T18:56:46;10.90;;;7.77;;
56413;SDS011;42318;48.452;19.526;2022-12-15T19:04:17;12.98;;;8.40;;
56413;SDS011;42318;48.452;19.526;2022-12-15T19:11:48;13.15;;;8.30;;
56413;SDS011;42318;48.452;19.526;2022-12-15T19:19:46;11.07;;;7.13;;
56413;SDS011;42318;48.452;19.526;2022-12-15T19:27:35;13.00;;;8.00;;
56413;SDS011;42318;48.452;19.526;2022-12-15T19:35:06;13.23;;;7.97;;
56413;SDS011;42318;48.452;19.526;2022-12-15T19:42:37;12.23;;;7.37;;
56413;SDS011;42318;48.452;19.526;2022-12-15T19:50:52;12.13;;;7.50;;
56413;SDS011;42318;48.452;19.526;2022-12-15T19:58:22;10.77;;;8.05;;
56413;SDS011;42318;48.452;19.526;2022-12-15T20:05:58;13.18;;;7.65;;
56413;SDS011;42318;48.452;19.526;2022-12-15T20:13:31;11.27;;;8.02;;
56413;SDS011;42318;48.452;19.526;2022-12-15T20:21:02;12.23;;;7.40;;
56413;SDS011;42318;48.452;19.526;2022-12-15T20:28:33;11.05;;;7.57;;
56413;SDS011;42318;48.452;19.526;2022-12-15T20:36:04;11.55;;;8.02;;
56413;SDS011;42318;48.452;19.526;2022-12-15T20:43:42;12.25;;;7.65;;
56413;SDS011;42318;48.452;19.526;2022-12-15T20:51:20;11.63;;;7.63;;
56413;SDS011;42318;48.452;19.526;2022-12-15T20:58:55;12.07;;;7.82;;
56413;SDS011;42318;48.452;19.526;2022-12-15T21:06:26;12.93;;;8.27;;
56413;SDS011;42318;48.452;19.526;2022-12-15T21:13:58;12.73;;;8.37;;
56413;SDS011;42318;48.452;19.526;2022-12-15T21:21:34;11.05;;;8.02;;
56413;SDS011;42318;48.452;19.526;2022-12-15T21:29:10;12.88;;;8.13;;
56413;SDS011;42318;48.452;19.526;2022-12-15T21:36:44;13.05;;;8.75;;
56413;SDS011;42318;48.452;19.526;2022-12-15T21:44:19;11.93;;;8.00;;
56413;SDS011;42318;48.452;19.526;2022-12-15T21:51:56;14.85;;;7.97;;
56413;SDS011;42318;48.452;19.526;2022-12-15T21:59:30;12.95;;;8.10;;
56413;SDS011;42318;48.452;19.526;2022-12-15T22:07:02;11.80;;;8.70;;
56413;SDS011;42318;48.452;19.526;2022-12-15T22:14:35;13.77;;;8.65;;
56413;SDS011;42318;48.452;19.526;2022-12-15T22:22:06;11.00;;;7.78;;
56413;SDS011;42318;48.452;19.526;2022-12-15T22:29:37;10.85;;;7.97;;
56413;SDS011;42318;48.452;19.526;2022-12-15T22:37:07;14.45;;;8.10;;
56413;SDS011;42318;48.452;19.526;2022-12-15T22:44:38;12.43;;;7.43;;
56413;SDS011;42318;48.452;19.526;2022-12-15T22:52:16;13.60;;;8.30;;
56413;SDS011;42318;48.452;19.526;2022-12-15T22:59:53;10.93;;;7.63;;
56413;SDS011;42318;48.452;19.526;2022-12-15T23:07:37;11.88;;;7.53;;
56413;SDS011;42318;48.452;19.526;2022-12-15T23:15:08;11.55;;;7.75;;
56413;SDS011;42318;48.452;19.526;2022-12-15T23:22:57;10.30;;;6.72;;
56413;SDS011;42318;48.452;19.526;2022-12-15T23:30:28;9.90;;;7.18;;
56413;SDS011;42318;48.452;19.526;2022-12-15T23:37:59;9.70;;;6.60;;
56413;SDS011;42318;48.452;19.526;2022-12-15T23:45:30;10.20;;;6.53;;
56413;SDS011;42318;48.452;19.526;2022-12-15T23:53:01;10.60;;;6.88;;
